Time;durP1;ratioP1;P1;durP2;ratioP2;P2;SDS_P1;SDS_P2;PMS_P1;PMS_P2;Temp;Humidity;BMP_temperature;BMP_pressure;BME280_temperature;BME280_humidity;BME280_pressure;Samples;Min_cycle;Max_cycle;Signal;HPM_P1;HPM_P2
2022/02/12 00:00:37;;;;;;;19.30;10.68;;;6.00;81.20;;;;;;5032554;28;20033;-73
2022/02/12 00:03:03;;;;;;;21.85;10.40;;;;;;;;;;5044450;28;20802;-74
2022/02/12 00:05:30;;;;;;;21.08;9.75;;;7.10;88.20;;;;;;5032433;28;20105;-73
2022/02/12 00:07:58;;;;;;;18.80;8.93;;;5.70;99.60;;;;;;5032206;28;20520;-72
2022/02/12 00:10:25;;;;;;;17.92;9.00;;;5.30;90.00;;;;;;5039928;28;20611;-74
2022/02/12 00:12:51;;;;;;;17.65;8.70;;;6.60;97.40;;;;;;5033372;28;20441;-74
2022/02/12 00:15:17;;;;;;;18.35;9.75;;;5.70;84.20;;;;;;5030175;28;20116;-73
2022/02/12 00:17:44;;;;;;;17.10;9.13;;;5.70;84.80;;;;;;5042686;28;20064;-74
2022/02/12 00:20:11;;;;;;;17.50;8.60;;;5.70;85.00;;;;;;5024066;28;20046;-73
2022/02/12 00:22:36;;;;;;;17.23;8.20;;;6.80;91.70;;;;;;5019187;28;20171;-72
2022/02/12 00:25:02;;;;;;;15.20;7.50;;;5.60;86.00;;;;;;5020573;28;20528;-74
2022/02/12 00:27:28;;;;;;;15.38;7.78;;;6.00;92.20;;;;;;5037150;28;20029;-73
2022/02/12 00:29:54;;;;;;;15.32;7.35;;;6.10;85.50;;;;;;5030405;28;20136;-73
2022/02/12 00:32:20;;;;;;;18.08;7.70;;;5.90;90.50;;;;;;5040165;28;20480;-73
2022/02/12 00:34:46;;;;;;;18.15;8.02;;;;;;;;;;5038155;28;20051;-73
2022/02/12 00:37:12;;;;;;;13.50;6.97;;;5.60;94.60;;;;;;5031606;28;20061;-73
2022/02/12 00:39:39;;;;;;;17.77;7.80;;;5.40;99.90;;;;;;5025541;28;20313;-73
2022/02/12 00:42:05;;;;;;;17.33;8.63;;;5.10;99.90;;;;;;5029557;28;20506;-73
2022/02/12 00:44:32;;;;;;;17.90;8.45;;;5.30;84.60;;;;;;5026172;28;20444;-73
2022/02/12 00:46:58;;;;;;;23.35;11.75;;;5.50;99.80;;;;;;5035861;28;20020;-73
2022/02/12 00:49:24;;;;;;;18.48;9.88;;;;;;;;;;5040627;28;20037;-73
2022/02/12 00:51:51;;;;;;;17.55;9.27;;;5.10;85.80;;;;;;5027660;28;20026;-74
2022/02/12 00:54:17;;;;;;;16.15;8.05;;;5.10;99.90;;;;;;5027265;28;20056;-73
2022/02/12 00:56:43;;;;;;;21.23;9.63;;;4.90;86.50;;;;;;5032988;28;20021;-73
2022/02/12 00:59:09;;;;;;;21.75;11.93;;;5.20;85.80;;;;;;5031860;28;20049;-73
2022/02/12 01:01:35;;;;;;;25.30;12.10;;;4.90;98.80;;;;;;5032389;28;20401;-73
2022/02/12 01:04:02;;;;;;;20.55;10.95;;;4.90;87.30;;;;;;5032718;28;20044;-73
2022/02/12 01:06:29;;;;;;;23.13;10.85;;;5.30;97.30;;;;;;5014942;28;20037;-73
2022/02/12 01:08:55;;;;;;;20.05;10.40;;;4.90;89.10;;;;;;5015842;28;20022;-73
2022/02/12 01:11:21;;;;;;;21.52;11.15;;;4.80;89.00;;;;;;5029674;28;20033;-73
2022/02/12 01:13:47;;;;;;;20.73;11.18;;;4.70;89.80;;;;;;5028002;28;20041;-73
2022/02/12 01:16:13;;;;;;;19.30;9.30;;;4.60;89.90;;;;;;5026038;28;20107;-73
2022/02/12 01:18:39;;;;;;;15.35;8.77;;;4.60;90.00;;;;;;5029471;28;20057;-73
2022/02/12 01:21:05;;;;;;;14.30;9.30;;;4.50;90.30;;;;;;5034236;28;20082;-73
2022/02/12 01:23:31;;;;;;;19.45;9.25;;;;;;;;;;5034261;28;20446;-73
2022/02/12 01:25:57;;;;;;;18.65;8.75;;;4.40;91.00;;;;;;5040927;28;20076;-73
2022/02/12 01:28:23;;;;;;;15.27;9.13;;;4.30;91.80;;;;;;5034933;28;20516;-74
2022/02/12 01:30:49;;;;;;;17.92;9.15;;;4.30;91.80;;;;;;5030046;28;20055;-73
2022/02/12 01:33:16;;;;;;;19.92;10.10;;;4.20;92.00;;;;;;5040638;28;20037;-74
2022/02/12 01:35:42;;;;;;;16.35;8.70;;;4.20;92.30;;;;;;5034003;28;20051;-73
2022/02/12 01:38:08;;;;;;;16.05;8.10;;;4.20;91.90;;;;;;5033473;28;20033;-73
2022/02/12 01:40:33;;;;;;;17.98;8.38;;;4.20;92.00;;;;;;5032752;28;20067;-73
2022/02/12 01:43:02;;;;;;;17.95;8.77;;;4.70;99.90;;;;;;5042630;28;20405;-73
2022/02/12 01:45:31;;;;;;;16.50;9.07;;;4.30;92.10;;;;;;5028786;28;20052;-74
2022/02/12 01:47:57;;;;;;;18.75;8.75;;;;;;;;;;5014990;28;20041;-72
2022/02/12 01:50:23;;;;;;;23.17;9.30;;;4.30;99.90;;;;;;5029959;28;20116;-73
2022/02/12 01:52:50;;;;;;;23.98;8.70;;;4.00;96.70;;;;;;5035547;28;20488;-74
2022/02/12 01:55:17;;;;;;;16.05;8.75;;;4.10;91.90;;;;;;5030564;28;20068;-74
2022/02/12 01:57:43;;;;;;;15.40;8.07;;;3.80;99.90;;;;;;5030816;28;20025;-74
2022/02/12 02:00:11;;;;;;;19.10;8.05;;;4.10;91.40;;;;;;5037289;28;20063;-73
2022/02/12 02:02:40;;;;;;;17.25;8.20;;;4.00;91.90;;;;;;5030898;28;20033;-73
2022/02/12 02:05:13;;;;;;;13.52;7.90;;;4.20;95.10;;;;;;5032289;28;20128;-74
2022/02/12 02:07:40;;;;;;;18.35;8.15;;;4.00;91.30;;;;;;5035536;28;20032;-74
2022/02/12 02:10:07;;;;;;;13.10;7.40;;;3.80;99.90;;;;;;5030813;28;20037;-74
2022/02/12 02:12:33;;;;;;;17.67;8.88;;;;;;;;;;5039290;28;20622;-74
2022/02/12 02:14:59;;;;;;;15.57;8.27;;;4.00;91.40;;;;;;5041074;28;20400;-73
2022/02/12 02:17:26;;;;;;;17.33;8.40;;;;;;;;;;5019577;28;20443;-74
2022/02/12 02:19:52;;;;;;;15.73;8.32;;;;;;;;;;5025299;28;20095;-74
2022/02/12 02:22:22;;;;;;;15.20;8.20;;;4.00;91.70;;;;;;5034431;28;20037;-74
2022/02/12 02:24:48;;;;;;;13.35;7.95;;;;;;;;;;5024038;28;20346;-73
2022/02/12 02:27:15;;;;;;;21.45;8.20;;;4.10;92.30;;;;;;5040848;28;20263;-74
2022/02/12 02:29:42;;;;;;;16.27;7.90;;;4.00;91.10;;;;;;5041710;28;20555;-74
2022/02/12 02:32:10;;;;;;;19.17;7.63;;;4.30;99.90;;;;;;5030025;28;20029;-73
2022/02/12 02:34:46;;;;;;;16.58;7.97;;;3.80;99.40;;;;;;5024852;28;20040;-73
2022/02/12 02:37:12;;;;;;;16.33;7.65;;;;;;;;;;5031925;28;20032;-73
2022/02/12 02:39:37;;;;;;;15.20;8.07;;;4.00;93.70;;;;;;5030129;28;20166;-73
2022/02/12 02:42:03;;;;;;;16.83;8.68;;;3.90;90.30;;;;;;5040895;28;20495;-74
2022/02/12 02:44:29;;;;;;;16.10;7.82;;;3.80;99.60;;;;;;5037682;28;20062;-74
2022/02/12 02:46:55;;;;;;;15.88;7.55;;;4.20;98.70;;;;;;5040419;28;20022;-74
2022/02/12 02:49:21;;;;;;;16.75;8.18;;;3.90;99.90;;;;;;5037896;28;20032;-73
2022/02/12 02:57:16;;;;;;;17.63;8.23;;;;;;;;;;5036784;28;20091;-74
2022/02/12 02:59:42;;;;;;;19.05;7.65;;;;;;;;;;5034260;28;20061;-74
2022/02/12 03:02:08;;;;;;;15.57;7.80;;;;;;;;;;5042316;28;20037;-74
2022/02/12 03:04:34;;;;;;;17.77;7.97;;;3.80;94.10;;;;;;5040217;28;20034;-74
2022/02/12 03:07:00;;;;;;;15.25;7.65;;;3.20;99.20;;;;;;5036943;28;20037;-73
2022/02/12 03:09:26;;;;;;;16.45;8.30;;;;;;;;;;5031830;28;20045;-73
2022/02/12 03:11:53;;;;;;;14.43;7.72;;;3.50;99.90;;;;;;5032417;28;20033;-74
2022/02/12 03:14:19;;;;;;;14.95;7.82;;;3.60;97.90;;;;;;5034932;28;20063;-74
2022/02/12 03:16:45;;;;;;;16.83;7.65;;;3.40;98.40;;;;;;5027487;28;20115;-74
2022/02/12 03:19:11;;;;;;;16.10;7.80;;;2.90;99.90;;;;;;5021652;28;20525;-74
2022/02/12 03:21:37;;;;;;;17.58;7.38;;;;;;;;;;5018001;28;20036;-74
2022/02/12 03:24:03;;;;;;;14.25;7.90;;;4.20;96.90;;;;;;5038621;28;20039;-74
2022/02/12 03:26:29;;;;;;;12.25;7.57;;;3.70;93.40;;;;;;5039529;28;20025;-74
2022/02/12 03:28:54;;;;;;;16.83;8.10;;;3.00;99.90;;;;;;5038146;28;20055;-74
2022/02/12 03:31:20;;;;;;;13.93;6.82;;;3.20;99.90;;;;;;5039062;28;20094;-74
2022/02/12 03:33:46;;;;;;;12.88;6.45;;;;;;;;;;5033184;28;20037;-75
2022/02/12 03:36:13;;;;;;;14.27;6.70;;;;;;;;;;5031674;28;20091;-74
2022/02/12 03:38:40;;;;;;;13.02;6.90;;;;;;;;;;5031740;28;20124;-73
2022/02/12 03:41:07;;;;;;;12.32;6.88;;;3.60;99.90;;;;;;5032956;28;20775;-74
2022/02/12 03:43:37;;;;;;;13.27;6.72;;;3.00;99.90;;;;;;5039793;28;20025;-74
2022/02/12 03:46:04;;;;;;;12.93;7.00;;;3.70;97.20;;;;;;5045212;28;20032;-74
2022/02/12 03:48:30;;;;;;;13.32;6.45;;;4.40;99.90;;;;;;5031522;28;20021;-75
2022/02/12 03:50:56;;;;;;;10.30;6.28;;;2.90;99.90;;;;;;5033411;28;20029;-75
2022/02/12 03:53:22;;;;;;;14.82;7.68;;;3.00;95.30;;;;;;5033873;28;20488;-74
2022/02/12 03:55:49;;;;;;;14.70;6.85;;;1.50;90.20;;;;;;5032489;28;20079;-75
2022/02/12 03:58:17;;;;;;;13.48;6.75;;;4.60;99.70;;;;;;5032316;28;20034;-75
2022/02/12 04:00:44;;;;;;;14.30;6.90;;;3.30;90.90;;;;;;5031810;28;20115;-75
2022/02/12 04:03:11;;;;;;;12.35;6.15;;;3.40;99.90;;;;;;5015128;28;20049;-75
2022/02/12 04:05:37;;;;;;;13.75;6.43;;;3.50;98.00;;;;;;5032674;28;20033;-75
2022/02/12 04:08:04;;;;;;;12.80;6.15;;;3.40;99.90;;;;;;5026048;28;20045;-74
2022/02/12 04:10:30;;;;;;;12.75;6.57;;;3.40;99.90;;;;;;5023713;28;20037;-74
2022/02/12 04:12:58;;;;;;;14.40;7.15;;;3.00;99.90;;;;;;5044138;28;20036;-75
2022/02/12 04:15:27;;;;;;;15.48;6.65;;;3.70;96.80;;;;;;5030741;28;20032;-74
2022/02/12 04:17:53;;;;;;;15.73;7.20;;;2.70;99.90;;;;;;5016712;28;20066;-75
2022/02/12 04:20:22;;;;;;;12.68;6.90;;;3.30;95.40;;;;;;5030556;28;20079;-75
2022/02/12 04:22:48;;;;;;;13.05;6.80;;;2.90;91.00;;;;;;5035991;28;20022;-74
2022/02/12 04:25:19;;;;;;;17.42;7.30;;;3.60;97.70;;;;;;5031758;28;20025;-75
2022/02/12 04:27:45;;;;;;;12.93;6.65;;;2.20;96.30;;;;;;5034830;28;20044;-75
2022/02/12 04:30:12;;;;;;;16.45;6.60;;;2.90;91.20;;;;;;5020936;28;20413;-74
2022/02/12 04:32:39;;;;;;;14.05;6.75;;;;;;;;;;5030054;28;20026;-73
2022/02/12 04:35:06;;;;;;;14.60;6.60;;;2.70;99.90;;;;;;5036073;28;20524;-75
2022/02/12 04:37:32;;;;;;;14.98;6.93;;;;;;;;;;5031226;28;20052;-74
2022/02/12 04:39:58;;;;;;;14.75;6.93;;;2.70;91.80;;;;;;5042241;28;20455;-74
2022/02/12 04:42:24;;;;;;;14.60;7.03;;;2.80;99.70;;;;;;5042039;28;20025;-75
2022/02/12 04:44:52;;;;;;;15.10;6.93;;;3.00;93.20;;;;;;5018109;28;20128;-74
2022/02/12 04:47:19;;;;;;;13.35;6.57;;;2.90;99.90;;;;;;5029758;28;20025;-74
2022/02/12 04:49:46;;;;;;;14.27;6.43;;;2.80;99.90;;;;;;5031207;28;20033;-75
2022/02/12 04:52:14;;;;;;;13.05;6.50;;;2.60;91.90;;;;;;5036956;28;20033;-74
2022/02/12 04:54:40;;;;;;;13.90;6.72;;;;;;;;;;5031864;28;20040;-74
2022/02/12 04:57:06;;;;;;;12.23;6.15;;;;;;;;;;5033280;28;20503;-75
2022/02/12 04:59:33;;;;;;;14.65;6.55;;;;;;;;;;5037010;28;20053;-74
2022/02/12 05:01:59;;;;;;;13.48;6.45;;;1.00;91.50;;;;;;5024234;28;20057;-74
2022/02/12 05:04:25;;;;;;;13.85;6.35;;;2.30;99.90;;;;;;5022131;28;20108;-74
2022/02/12 05:06:51;;;;;;;11.38;6.00;;;;;;;;;;5039679;28;20112;-74
2022/02/12 05:09:17;;;;;;;15.02;6.40;;;;;;;;;;5028707;28;20067;-73
2022/02/12 05:11:46;;;;;;;10.90;5.88;;;1.30;99.90;;;;;;5032119;28;20443;-74
2022/02/12 05:14:12;;;;;;;14.02;5.78;;;;;;;;;;5032199;28;20033;-74
2022/02/12 05:16:38;;;;;;;11.65;5.93;;;;;;;;;;5031702;28;20021;-73
2022/02/12 05:19:04;;;;;;;9.23;5.57;;;;;;;;;;5033075;28;20049;-76
2022/02/12 05:21:30;;;;;;;10.82;6.10;;;1.70;99.90;;;;;;5035899;28;20021;-75
2022/02/12 05:23:56;;;;;;;11.88;6.00;;;;;;;;;;5032263;28;20035;-75
2022/02/12 05:26:22;;;;;;;11.27;5.90;;;;;;;;;;5032250;28;20499;-75
2022/02/12 05:28:48;;;;;;;9.70;5.68;;;1.80;99.90;;;;;;5025619;28;20033;-75
2022/02/12 05:31:14;;;;;;;11.05;5.50;;;2.60;97.20;;;;;;5041071;28;20037;-75
2022/02/12 05:33:40;;;;;;;8.80;4.93;;;;;;;;;;5031019;28;20024;-74
2022/02/12 05:36:10;;;;;;;12.07;6.22;;;2.30;91.70;;;;;;5036638;28;20021;-75
2022/02/12 05:38:39;;;;;;;12.20;5.60;;;2.30;91.90;;;;;;5017867;28;20037;-75
2022/02/12 05:41:06;;;;;;;15.52;5.80;;;1.70;93.70;;;;;;5026966;28;20512;-74
2022/02/12 05:43:33;;;;;;;11.23;5.80;;;;;;;;;;5030638;28;20021;-74
2022/02/12 05:46:03;;;;;;;12.07;5.60;;;2.20;91.80;;;;;;5029578;28;20021;-74
2022/02/12 05:48:29;;;;;;;13.15;5.70;;;;;;;;;;5026768;28;20105;-75
2022/02/12 05:50:55;;;;;;;13.52;5.60;;;2.30;99.90;;;;;;5028627;28;20033;-75
2022/02/12 05:53:21;;;;;;;10.35;5.47;;;1.70;97.50;;;;;;5040238;28;20070;-74
2022/02/12 05:55:47;;;;;;;11.85;5.45;;;1.40;94.50;;;;;;5036848;28;20075;-74
2022/02/12 05:58:13;;;;;;;10.90;5.95;;;1.90;99.90;;;;;;5024605;28;20053;-74
2022/02/12 06:00:39;;;;;;;12.07;6.20;;;1.80;99.90;;;;;;5030016;28;20084;-74
2022/02/12 06:03:05;;;;;;;10.73;5.70;;;;;;;;;;5030326;28;20033;-75
2022/02/12 06:05:31;;;;;;;11.20;5.70;;;1.40;99.90;;;;;;5030017;28;20121;-75
2022/02/12 06:07:59;;;;;;;12.10;6.40;;;;;;;;;;5030277;28;20109;-74
2022/02/12 06:10:26;;;;;;;13.20;6.28;;;2.10;99.80;;;;;;5037912;28;20108;-75
2022/02/12 06:12:52;;;;;;;14.80;6.18;;;2.00;92.30;;;;;;5031087;28;20029;-75
2022/02/12 06:15:18;;;;;;;13.07;6.18;;;2.20;97.60;;;;;;5039829;28;20108;-75
2022/02/12 06:17:44;;;;;;;10.23;5.50;;;;;;;;;;5037779;28;20649;-75
2022/02/12 06:20:11;;;;;;;10.30;5.60;;;2.10;99.90;;;;;;5030603;28;20053;-75
2022/02/12 06:25:59;;;;;;;15.10;5.63;;;;;;;;;;5037098;28;20032;-74
2022/02/12 06:28:25;;;;;;;13.93;6.03;;;;;;;;;;5035735;28;20159;-74
2022/02/12 06:30:51;;;;;;;11.10;6.22;;;;;;;;;;5026677;28;20420;-75
2022/02/12 06:33:17;;;;;;;13.15;5.93;;;;;;;;;;5032697;28;20116;-73
2022/02/12 06:35:43;;;;;;;11.57;5.88;;;;;;;;;;5032759;28;20029;-75
2022/02/12 06:38:10;;;;;;;16.40;6.38;;;1.50;99.90;;;;;;5035610;28;20030;-74
2022/02/12 06:40:36;;;;;;;13.02;6.43;;;1.80;99.90;;;;;;5029964;28;20041;-74
2022/02/12 06:43:03;;;;;;;14.38;6.53;;;;;;;;;;5026921;28;20034;-74
2022/02/12 06:45:30;;;;;;;15.75;6.57;;;1.00;99.90;;;;;;5037278;28;20661;-76
2022/02/12 06:47:56;;;;;;;15.73;7.18;;;;;;;;;;5034587;28;20051;-69
2022/02/12 06:50:22;;;;;;;14.93;6.82;;;;;;;;;;5035145;28;20033;-75
2022/02/12 06:52:48;;;;;;;15.77;6.70;;;1.70;99.90;;;;;;5039309;28;20029;-75
2022/02/12 06:55:14;;;;;;;13.48;6.68;;;1.60;98.60;;;;;;5036520;28;20044;-74
2022/02/12 06:57:39;;;;;;;20.25;7.50;;;1.40;94.60;;;;;;5033452;28;20377;-75
2022/02/12 07:00:06;;;;;;;13.05;6.35;;;0.90;99.90;;;;;;5032151;28;20151;-75
2022/02/12 07:02:32;;;;;;;13.45;5.97;;;1.30;99.90;;;;;;5033712;28;20042;-75
2022/02/12 07:05:00;;;;;;;12.80;6.63;;;;;;;;;;5033363;28;20411;-75
2022/02/12 07:07:26;;;;;;;12.27;6.43;;;1.70;99.90;;;;;;5030846;28;20539;-76
2022/02/12 07:09:52;;;;;;;14.40;6.50;;;;;;;;;;5024434;28;20025;-74
2022/02/12 07:12:17;;;;;;;15.32;6.60;;;2.20;99.90;;;;;;5029565;28;20077;-73
2022/02/12 07:14:44;;;;;;;11.68;6.20;;;;;;;;;;5033214;28;20680;-72
2022/02/12 07:17:10;;;;;;;14.93;6.10;;;1.40;99.00;;;;;;5027487;28;20100;-74
2022/02/12 07:19:37;;;;;;;16.20;5.63;;;1.20;97.60;;;;;;5032513;28;20045;-76
2022/02/12 07:22:03;;;;;;;11.85;6.35;;;1.60;99.90;;;;;;5031784;28;20033;-76
2022/02/12 07:24:30;;;;;;;11.55;5.65;;;;;;;;;;5030923;28;20094;-77
2022/02/12 07:26:56;;;;;;;13.48;6.15;;;;;;;;;;5024319;28;20063;-75
2022/02/12 07:29:22;;;;;;;14.18;5.85;;;;;;;;;;5043087;28;20032;-76
2022/02/12 07:31:47;;;;;;;12.57;5.60;;;1.60;99.90;;;;;;5032054;28;20029;-74
2022/02/12 07:34:15;;;;;;;12.13;5.50;;;;;;;;;;5027874;28;20572;-77
2022/02/12 07:36:41;;;;;;;9.30;4.97;;;2.40;89.90;;;;;;5029614;28;20025;-75
2022/02/12 07:39:07;;;;;;;12.57;5.15;;;;;;;;;;5036155;28;20155;-74
2022/02/12 07:41:35;;;;;;;12.48;5.82;;;5.00;90.80;;;;;;5036987;28;20033;-76
2022/02/12 07:44:04;;;;;;;14.23;5.80;;;5.10;80.20;;;;;;5033466;28;20104;-74
2022/02/12 07:46:29;;;;;;;10.95;5.60;;;6.60;77.90;;;;;;5027360;28;20021;-74
2022/02/12 07:48:55;;;;;;;14.70;5.68;;;8.10;69.60;;;;;;5031295;28;20048;-74
2022/02/12 07:51:21;;;;;;;10.98;5.53;;;;;;;;;;5029485;28;20848;-75
2022/02/12 07:53:47;;;;;;;16.33;7.50;;;;;;;;;;5028649;28;20080;-75
2022/02/12 07:56:19;;;;;;;11.80;5.93;;;9.50;54.30;;;;;;5021049;28;20033;-73
2022/02/12 07:58:49;;;;;;;13.70;6.10;;;10.30;53.10;;;;;;5025572;28;20072;-75
2022/02/12 08:01:21;;;;;;;13.27;6.97;;;11.20;51.40;;;;;;5031561;28;20044;-75
2022/02/12 08:03:50;;;;;;;12.75;6.45;;;12.10;48.60;;;;;;5032146;28;20029;-74
2022/02/12 08:09:04;;;;;;;12.15;6.13;;;13.60;44.50;;;;;;5015473;28;20076;-74
2022/02/12 08:11:35;;;;;;;14.85;7.10;;;14.60;42.10;;;;;;5031572;28;20026;-75
2022/02/12 08:14:00;;;;;;;18.73;10.60;;;15.30;40.70;;;;;;5032505;28;20025;-79
2022/02/12 08:16:26;;;;;;;13.75;7.32;;;16.00;38.80;;;;;;5028456;28;20083;-77
2022/02/12 08:18:52;;;;;;;17.48;7.10;;;16.60;37.60;;;;;;5023013;28;20040;-77
2022/02/12 08:21:18;;;;;;;11.88;7.32;;;17.20;35.90;;;;;;5014221;28;20649;-77
2022/02/12 08:23:44;;;;;;;17.35;6.70;;;17.80;34.30;;;;;;5017747;28;20030;-78
2022/02/12 08:26:14;;;;;;;15.55;5.65;;;18.30;33.00;;;;;;5037836;28;20051;-77
2022/02/12 08:28:44;;;;;;;13.52;5.90;;;18.60;31.70;;;;;;5038292;28;20492;-75
2022/02/12 08:31:10;;;;;;;13.00;5.90;;;18.80;30.50;;;;;;5028914;28;20034;-75
2022/02/12 08:33:38;;;;;;;11.15;5.50;;;19.10;30.00;;;;;;5038769;28;20045;-75
2022/02/12 08:36:07;;;;;;;10.20;5.30;;;19.30;29.60;;;;;;5035686;28;20036;-75
2022/02/12 08:38:34;;;;;;;10.95;5.22;;;19.50;29.30;;;;;;5029768;28;20436;-75
2022/02/12 08:41:06;;;;;;;10.18;4.80;;;19.80;28.90;;;;;;5031931;28;20040;-75
2022/02/12 08:43:33;;;;;;;12.02;5.18;;;20.00;28.60;;;;;;5029833;28;20021;-75
2022/02/12 08:46:03;;;;;;;10.20;4.78;;;20.40;28.20;;;;;;5031385;28;20025;-75
2022/02/12 08:48:33;;;;;;;9.35;4.78;;;20.60;27.70;;;;;;5021219;28;20029;-75
2022/02/12 08:51:08;;;;;;;10.18;5.30;;;20.80;27.20;;;;;;5014918;28;20137;-75
2022/02/12 08:53:34;;;;;;;10.30;5.82;;;21.10;27.00;;;;;;5032445;28;20096;-75
2022/02/12 08:56:00;;;;;;;13.35;6.78;;;21.20;26.80;;;;;;5031638;28;20040;-75
2022/02/12 08:58:26;;;;;;;14.38;7.28;;;21.30;26.70;;;;;;5025997;28;20431;-75
2022/02/12 09:00:53;;;;;;;16.17;7.53;;;21.80;26.20;;;;;;5024428;28;20024;-75
2022/02/12 09:03:18;;;;;;;17.60;7.80;;;22.00;26.00;;;;;;5027560;28;20034;-73
2022/02/12 09:05:44;;;;;;;19.52;7.40;;;22.30;25.50;;;;;;5031535;28;20174;-75
2022/02/12 09:08:12;;;;;;;14.40;7.10;;;22.40;25.40;;;;;;5030128;28;20160;-73
2022/02/12 09:10:39;;;;;;;12.73;7.07;;;22.70;25.00;;;;;;5031807;28;20041;-73
2022/02/12 09:13:05;;;;;;;11.57;6.38;;;23.10;24.60;;;;;;5025775;28;20026;-73
2022/02/12 09:15:34;;;;;;;12.02;6.68;;;23.60;24.20;;;;;;5029331;28;20025;-74
2022/02/12 09:18:00;;;;;;;11.10;5.53;;;23.80;23.90;;;;;;5028751;28;20052;-74
2022/02/12 09:20:27;;;;;;;12.57;6.07;;;24.30;23.20;;;;;;5022928;28;20108;-73
2022/02/12 09:22:53;;;;;;;10.65;5.30;;;24.80;23.00;;;;;;5030011;28;20504;-72
2022/02/12 09:25:19;;;;;;;9.18;5.30;;;25.50;22.40;;;;;;5029972;28;20067;-72
2022/02/12 09:27:46;;;;;;;10.18;4.70;;;26.20;21.60;;;;;;5028044;28;20128;-73
2022/02/12 09:30:12;;;;;;;8.85;4.32;;;26.70;21.30;;;;;;5029119;28;20530;-73
2022/02/12 09:32:38;;;;;;;8.77;4.55;;;27.40;20.70;;;;;;5032877;28;20021;-72
2022/02/12 09:35:05;;;;;;;9.48;4.50;;;27.70;20.40;;;;;;5030136;28;20558;-73
2022/02/12 09:37:32;;;;;;;8.88;4.53;;;27.90;20.10;;;;;;5025755;28;20063;-72
2022/02/12 09:40:04;;;;;;;9.35;4.32;;;28.10;19.80;;;;;;5030807;28;20079;-71
2022/02/12 09:42:37;;;;;;;12.45;4.18;;;27.70;20.00;;;;;;5029450;28;20104;-72
2022/02/12 09:45:08;;;;;;;8.20;3.80;;;27.30;20.20;;;;;;5025051;28;20040;-72
2022/02/12 09:47:50;;;;;;;9.38;4.20;;;25.80;21.10;;;;;;5017561;28;20033;-72
2022/02/12 09:50:21;;;;;;;9.38;4.22;;;23.70;23.40;;;;;;5028349;28;20060;-72
2022/02/12 09:52:55;;;;;;;10.73;4.78;;;22.30;24.90;;;;;;5029814;28;20107;-73
2022/02/12 09:55:22;;;;;;;12.43;4.53;;;21.40;25.80;;;;;;5024342;28;20061;-72
2022/02/12 09:57:48;;;;;;;12.35;5.13;;;20.80;26.70;;;;;;5026221;28;20755;-72
2022/02/12 10:00:19;;;;;;;12.52;4.90;;;20.60;27.00;;;;;;5025279;28;20033;-73
2022/02/12 10:02:46;;;;;;;7.75;4.13;;;20.00;27.50;;;;;;5026839;28;20041;-74
2022/02/12 10:05:19;;;;;;;10.25;4.45;;;19.50;27.90;;;;;;5025764;28;20492;-72
2022/02/12 10:07:49;;;;;;;9.65;4.38;;;19.10;28.30;;;;;;5028246;28;20029;-72
2022/02/12 10:10:17;;;;;;;9.07;3.92;;;19.10;28.40;;;;;;5035511;28;20134;-72
2022/02/12 10:12:43;;;;;;;11.18;4.50;;;18.50;28.90;;;;;;5040317;28;20124;-72
2022/02/12 10:15:29;;;;;;;10.02;4.63;;;17.90;29.90;;;;;;5027608;28;20116;-72
2022/02/12 10:17:59;;;;;;;10.60;4.57;;;17.10;31.30;;;;;;5027518;28;20496;-72
2022/02/12 10:20:34;;;;;;;9.23;4.80;;;16.80;32.00;;;;;;5030029;28;20095;-72
2022/02/12 10:23:07;;;;;;;11.23;5.13;;;16.90;32.20;;;;;;5025361;28;20060;-71
2022/02/12 10:25:34;;;;;;;10.35;4.57;;;16.90;31.90;;;;;;5029084;28;20028;-71
2022/02/12 10:28:00;;;;;;;12.13;4.75;;;16.50;32.70;;;;;;5034451;28;20022;-74
2022/02/12 10:30:27;;;;;;;11.48;4.68;;;17.90;30.60;;;;;;5037700;28;20041;-73
2022/02/12 10:33:04;;;;;;;9.57;4.80;;;20.30;27.70;;;;;;5024802;28;20032;-73
2022/02/12 10:35:31;;;;;;;8.93;4.78;;;23.00;24.90;;;;;;5031417;28;20029;-74
2022/02/12 10:38:05;;;;;;;10.15;4.68;;;24.70;23.20;;;;;;5028162;28;20057;-76
2022/02/12 10:40:33;;;;;;;10.20;4.90;;;25.20;23.30;;;;;;5020803;28;20065;-74
2022/02/12 10:42:59;;;;;;;8.63;4.68;;;26.80;21.40;;;;;;5038622;28;20029;-74
2022/02/12 10:45:28;;;;;;;8.13;4.30;;;28.30;20.00;;;;;;5028820;28;20033;-74
2022/02/12 10:47:57;;;;;;;9.13;4.32;;;29.30;19.00;;;;;;5028427;28;20408;-74
2022/02/12 10:50:23;;;;;;;9.40;4.55;;;29.90;18.30;;;;;;5029909;28;20500;-73
2022/02/12 10:52:59;;;;;;;7.97;4.30;;;30.60;18.30;;;;;;5023056;28;20030;-74
2022/02/12 10:55:36;;;;;;;10.18;4.20;;;31.10;17.70;;;;;;5018912;28;20109;-74
2022/02/12 10:58:07;;;;;;;8.45;3.85;;;31.70;17.50;;;;;;5029899;28;20443;-73
2022/02/12 11:00:35;;;;;;;8.60;3.80;;;31.20;17.10;;;;;;5029087;28;20079;-74
2022/02/12 11:03:05;;;;;;;8.95;4.60;;;31.30;17.50;;;;;;5013519;28;20931;-74
2022/02/12 11:05:34;;;;;;;8.48;4.40;;;30.70;17.80;;;;;;5026573;28;20033;-74
2022/02/12 11:08:01;;;;;;;8.80;4.40;;;29.60;18.60;;;;;;5029703;28;20029;-73
2022/02/12 11:10:27;;;;;;;8.57;4.50;;;29.60;18.20;;;;;;5030603;28;20038;-74
2022/02/12 11:12:53;;;;;;;8.10;4.28;;;29.90;18.10;;;;;;5019882;28;20040;-75
2022/02/12 11:15:19;;;;;;;7.95;3.92;;;30.30;17.80;;;;;;5031709;28;20116;-74
2022/02/12 11:17:47;;;;;;;8.65;4.03;;;30.90;17.40;;;;;;5031213;28;20550;-75
2022/02/12 11:20:14;;;;;;;10.10;4.20;;;31.50;17.20;;;;;;5037512;28;20104;-75
2022/02/12 11:22:41;;;;;;;7.60;5.00;;;32.40;16.20;;;;;;5041110;28;20025;-75
2022/02/12 11:25:42;;;;;;;9.30;4.90;;;32.30;16.70;;;;;;5033953;28;20037;-76
2022/02/12 11:28:10;;;;;;;9.82;6.45;;;32.30;16.50;;;;;;4974755;28;20049;-75
2022/02/12 11:30:41;;;;;;;10.77;8.45;;;32.80;16.30;;;;;;4986532;28;20046;-75
2022/02/12 11:33:21;;;;;;;9.93;5.20;;;32.70;16.20;;;;;;4989927;28;20486;-75
2022/02/12 11:36:11;;;;;;;9.35;5.88;;;32.80;16.30;;;;;;4989752;28;20061;-76
2022/02/12 11:38:41;;;;;;;7.53;5.40;;;33.00;16.10;;;;;;4984448;28;20041;-72
2022/02/12 11:41:22;;;;;;;8.77;4.40;;;33.40;15.80;;;;;;4989905;28;20096;-73
2022/02/12 11:43:48;;;;;;;8.32;4.38;;;33.50;15.90;;;;;;4985455;28;20506;-72
2022/02/12 11:46:14;;;;;;;7.18;4.30;;;33.40;16.10;;;;;;4986616;28;20039;-73
2022/02/12 11:48:42;;;;;;;9.55;5.50;;;33.40;15.90;;;;;;4988746;28;20122;-73
2022/02/12 11:51:08;;;;;;;12.45;4.78;;;33.50;15.60;;;;;;4974837;28;20073;-73
2022/02/12 11:53:44;;;;;;;10.85;6.82;;;33.70;15.70;;;;;;4989709;28;20113;-74
2022/02/12 11:56:18;;;;;;;10.85;7.15;;;34.10;15.70;;;;;;4989037;28;20054;-74
2022/02/12 11:58:45;;;;;;;13.10;8.23;;;34.20;15.10;;;;;;4985570;28;20056;-74
2022/02/12 12:01:35;;;;;;;11.55;6.13;;;34.30;15.10;;;;;;4989660;28;20026;-74
2022/02/12 12:04:18;;;;;;;11.23;5.47;;;34.60;15.10;;;;;;5019808;28;20033;-74
2022/02/12 12:07:09;;;;;;;7.50;3.95;;;34.90;14.90;;;;;;5026227;28;20028;-73
2022/02/12 12:09:59;;;;;;;7.72;3.95;;;34.90;15.00;;;;;;5034560;28;20034;-74
2022/02/12 12:12:25;;;;;;;8.82;3.80;;;35.00;14.90;;;;;;5029639;28;20172;-74
2022/02/12 12:15:12;;;;;;;6.45;3.35;;;35.40;14.70;;;;;;5041231;28;20037;-74
2022/02/12 12:17:38;;;;;;;6.03;3.45;;;35.70;14.60;;;;;;5031438;28;20051;-74
2022/02/12 12:20:05;;;;;;;8.20;3.33;;;35.90;14.10;;;;;;5032732;28;20036;-74
2022/02/12 12:22:30;;;;;;;8.32;3.40;;;35.60;14.30;;;;;;5041602;28;20033;-74
2022/02/12 12:24:59;;;;;;;8.10;3.45;;;35.00;14.40;;;;;;5032154;28;20439;-74
2022/02/12 12:27:25;;;;;;;8.20;3.60;;;35.50;14.10;;;;;;5039077;28;20020;-74
2022/02/12 12:32:35;;;;;;;7.03;3.35;;;36.00;14.30;;;;;;5035960;28;20056;-74
2022/02/12 12:35:07;;;;;;;6.63;3.13;;;36.50;13.90;;;;;;5031777;28;20029;-74
2022/02/12 12:37:35;;;;;;;6.57;3.13;;;36.70;14.00;;;;;;5038786;28;20021;-75
2022/02/12 12:40:03;;;;;;;9.93;3.55;;;37.00;13.50;;;;;;5032978;28;20132;-74
2022/02/12 12:42:30;;;;;;;6.32;2.90;;;37.20;13.30;;;;;;5031432;28;20026;-74
2022/02/12 12:45:00;;;;;;;6.80;3.00;;;37.40;13.30;;;;;;5030300;28;20026;-74
2022/02/12 12:47:30;;;;;;;5.65;2.80;;;37.20;13.50;;;;;;5037060;28;20117;-74
2022/02/12 12:50:03;;;;;;;6.22;2.85;;;37.10;13.30;;;;;;5039885;28;20125;-74
2022/02/12 12:52:33;;;;;;;6.03;2.67;;;37.60;12.80;;;;;;5037747;28;20531;-75
2022/02/12 12:55:14;;;;;;;7.20;2.95;;;37.60;12.80;;;;;;5019596;28;20053;-75
2022/02/12 12:57:43;;;;;;;6.90;3.42;;;37.70;12.80;;;;;;5030507;28;20033;-75
2022/02/12 13:00:16;;;;;;;6.85;3.17;;;37.90;12.90;;;;;;5029922;28;20071;-74
2022/02/12 13:02:50;;;;;;;6.55;3.53;;;37.60;13.10;;;;;;5032045;28;20104;-74
2022/02/12 13:05:27;;;;;;;37.22;5.60;;;37.10;13.10;;;;;;5031123;28;20121;-75
2022/02/12 13:07:55;;;;;;;7.35;3.50;;;37.00;13.40;;;;;;5032983;28;20022;-74
2022/02/12 13:10:26;;;;;;;6.47;2.80;;;36.90;13.20;;;;;;5032174;28;20033;-74
2022/02/12 13:12:53;;;;;;;9.68;3.45;;;36.70;13.40;;;;;;5031780;28;20083;-75
2022/02/12 13:15:25;;;;;;;8.65;3.60;;;36.70;13.50;;;;;;5014610;28;20034;-74
2022/02/12 13:17:59;;;;;;;6.60;3.50;;;35.50;13.40;;;;;;5014465;28;20040;-74